SWA4012 KLAS-KLBB
Flight info
| Callsign | SWA4012 |
|---|---|
| Flight time | 1h 38m |
| Altitude | 39000 |
| Route | NIITZ4 SSKEE ABQ LBB |
| Aircraft | B38M/M-SADE2E3GHIJ4J7P2RWZ/LB1D1 |
Departure
| Time | 2026-05-07 15:44 |
|---|---|
| Airport | Harry Reid International Airport (KLAS) |
Arrival
| Time | 2026-05-07 17:22 |
|---|---|
| Airport | Lubbock Preston Smith International Airport (KLBB) |
| Time | Latitude | Longitude | Altitude | Speed | Heading |
|---|---|---|---|---|---|
| 2026-05-07 15:23 | 36.08051 | -115.14558 | 2117 ft | 0 kts | 271° |
| 2026-05-07 15:31 | 36.08051 | -115.14531 | 2116 ft | 4 kts | 271° |
| 2026-05-07 15:31 | 36.08051 | -115.14502 | 2115 ft | 4 kts | 251° |
| 2026-05-07 15:31 | 36.08066 | -115.14483 | 2116 ft | 4 kts | 190° |
| 2026-05-07 15:32 | 36.08085 | -115.14482 | 2116 ft | 1 kts | 179° |
| 2026-05-07 15:32 | 36.08088 | -115.14482 | 2115 ft | 0 kts | 179° |
| 2026-05-07 15:36 | 36.08075 | -115.14482 | 2116 ft | 6 kts | 179° |
| 2026-05-07 15:36 | 36.07985 | -115.14481 | 2112 ft | 21 kts | 181° |
| 2026-05-07 15:36 | 36.07844 | -115.14450 | 2107 ft | 15 kts | 123° |
| 2026-05-07 15:36 | 36.07832 | -115.14380 | 2105 ft | 2 kts | 95° |
| 2026-05-07 15:37 | 36.07829 | -115.14341 | 2104 ft | 7 kts | 94° |
| 2026-05-07 15:37 | 36.07827 | -115.14254 | 2100 ft | 13 kts | 88° |
| 2026-05-07 15:37 | 36.07828 | -115.14115 | 2096 ft | 18 kts | 90° |
| 2026-05-07 15:37 | 36.07828 | -115.13955 | 2097 ft | 20 kts | 90° |
| 2026-05-07 15:38 | 36.07827 | -115.13776 | 2093 ft | 23 kts | 90° |
| 2026-05-07 15:38 | 36.07828 | -115.13561 | 2088 ft | 27 kts | 90° |
| 2026-05-07 15:38 | 36.07827 | -115.13320 | 2080 ft | 30 kts | 90° |
| 2026-05-07 15:38 | 36.07828 | -115.13053 | 2068 ft | 28 kts | 90° |
| 2026-05-07 15:39 | 36.07828 | -115.12887 | 2063 ft | 18 kts | 89° |
| 2026-05-07 15:39 | 36.07828 | -115.12706 | 2054 ft | 24 kts | 91° |
| 2026-05-07 15:39 | 36.07828 | -115.12483 | 2053 ft | 20 kts | 90° |
| 2026-05-07 15:39 | 36.07829 | -115.12335 | 2052 ft | 17 kts | 89° |
| 2026-05-07 15:40 | 36.07804 | -115.12229 | 2045 ft | 7 kts | 129° |
| 2026-05-07 15:40 | 36.07787 | -115.12203 | 2042 ft | 5 kts | 129° |
| 2026-05-07 15:40 | 36.07770 | -115.12178 | 2042 ft | 3 kts | 129° |
| 2026-05-07 15:40 | 36.07758 | -115.12159 | 2042 ft | 2 kts | 129° |
| 2026-05-07 15:41 | 36.07754 | -115.12153 | 2042 ft | 0 kts | 129° |
| 2026-05-07 15:41 | 36.07753 | -115.12151 | 2042 ft | 1 kts | 129° |
| 2026-05-07 15:42 | 36.07749 | -115.12145 | 2042 ft | 2 kts | 129° |
| 2026-05-07 15:42 | 36.07734 | -115.12127 | 2042 ft | 4 kts | 147° |
| 2026-05-07 15:42 | 36.07707 | -115.12117 | 2046 ft | 4 kts | 171° |
| 2026-05-07 15:42 | 36.07679 | -115.12116 | 2046 ft | 4 kts | 180° |
| 2026-05-07 15:43 | 36.07649 | -115.12118 | 2044 ft | 3 kts | 198° |
| 2026-05-07 15:43 | 36.07641 | -115.12137 | 2048 ft | 5 kts | 260° |
| 2026-05-07 15:43 | 36.07640 | -115.12216 | 2052 ft | 22 kts | 270° |
| 2026-05-07 15:43 | 36.07640 | -115.12720 | 2060 ft | 93 kts | 270° |
| 2026-05-07 15:44 | 36.07640 | -115.13772 | 2092 ft | 150 kts | 270° |
| 2026-05-07 15:44 | 36.07640 | -115.15172 | 2387 ft | 172 kts | 270° |
| 2026-05-07 15:44 | 36.07642 | -115.16703 | 3041 ft | 181 kts | 270° |
| 2026-05-07 15:44 | 36.07638 | -115.18298 | 3634 ft | 193 kts | 272° |
| 2026-05-07 15:45 | 36.07643 | -115.20073 | 4041 ft | 219 kts | 270° |
| 2026-05-07 15:45 | 36.07466 | -115.22045 | 4521 ft | 242 kts | 262° |
| 2026-05-07 15:45 | 36.07129 | -115.24157 | 5084 ft | 261 kts | 250° |
| 2026-05-07 15:45 | 36.06064 | -115.26051 | 5584 ft | 281 kts | 219° |
| 2026-05-07 15:46 | 36.02473 | -115.27908 | 7263 ft | 286 kts | 200° |
| 2026-05-07 15:46 | 36.00544 | -115.28529 | 8113 ft | 288 kts | 182° |
| 2026-05-07 15:46 | 35.98576 | -115.28118 | 8936 ft | 291 kts | 155° |
| 2026-05-07 15:47 | 35.96903 | -115.26740 | 9759 ft | 292 kts | 136° |
| 2026-05-07 15:47 | 35.95378 | -115.25096 | 10507 ft | 297 kts | 137° |
| 2026-05-07 15:47 | 35.93814 | -115.23411 | 11347 ft | 300 kts | 136° |
| 2026-05-07 15:47 | 35.92239 | -115.21700 | 12209 ft | 303 kts | 135° |
| 2026-05-07 15:48 | 35.90904 | -115.19717 | 13070 ft | 300 kts | 117° |
| 2026-05-07 15:48 | 35.89834 | -115.17486 | 13963 ft | 305 kts | 118° |
| 2026-05-07 15:48 | 35.88733 | -115.15235 | 14765 ft | 309 kts | 117° |
| 2026-05-07 15:48 | 35.87612 | -115.12892 | 15215 ft | 326 kts | 114° |
| 2026-05-07 15:49 | 35.86937 | -115.10188 | 15538 ft | 339 kts | 94° |
| 2026-05-07 15:49 | 35.86922 | -115.07219 | 15867 ft | 354 kts | 85° |
| 2026-05-07 15:49 | 35.87033 | -115.04123 | 16308 ft | 367 kts | 85° |
| 2026-05-07 15:49 | 35.87172 | -115.00973 | 17061 ft | 369 kts | 84° |
| 2026-05-07 15:50 | 35.87324 | -114.97839 | 17724 ft | 373 kts | 84° |
| 2026-05-07 15:50 | 35.87491 | -114.94630 | 18431 ft | 377 kts | 84° |
| 2026-05-07 15:50 | 35.87664 | -114.91389 | 19038 ft | 381 kts | 84° |
| 2026-05-07 15:50 | 35.87841 | -114.88114 | 19635 ft | 385 kts | 83° |
| 2026-05-07 15:51 | 35.88019 | -114.84800 | 20225 ft | 389 kts | 83° |
| 2026-05-07 15:51 | 35.88198 | -114.81459 | 20809 ft | 393 kts | 83° |
| 2026-05-07 15:51 | 35.88379 | -114.78081 | 21390 ft | 397 kts | 83° |
| 2026-05-07 15:51 | 35.88561 | -114.74659 | 21960 ft | 401 kts | 83° |
| 2026-05-07 15:52 | 35.88743 | -114.71206 | 22506 ft | 405 kts | 83° |
| 2026-05-07 15:52 | 35.88926 | -114.67723 | 23059 ft | 410 kts | 83° |
| 2026-05-07 15:52 | 35.89110 | -114.64202 | 23583 ft | 413 kts | 83° |
| 2026-05-07 15:52 | 35.89295 | -114.60652 | 24019 ft | 417 kts | 83° |
| 2026-05-07 15:53 | 35.89477 | -114.57122 | 24489 ft | 419 kts | 83° |
| 2026-05-07 15:53 | 35.89658 | -114.53525 | 24958 ft | 422 kts | 85° |
| 2026-05-07 15:53 | 35.89641 | -114.49894 | 25409 ft | 426 kts | 88° |
| 2026-05-07 15:53 | 35.89605 | -114.46229 | 25870 ft | 428 kts | 87° |
| 2026-05-07 15:54 | 35.89581 | -114.42546 | 26309 ft | 431 kts | 87° |
| 2026-05-07 15:54 | 35.89562 | -114.38840 | 26757 ft | 433 kts | 87° |
| 2026-05-07 15:54 | 35.89544 | -114.35116 | 27201 ft | 436 kts | 87° |
| 2026-05-07 15:54 | 35.89525 | -114.31367 | 27633 ft | 439 kts | 87° |
| 2026-05-07 15:55 | 35.89506 | -114.27609 | 28059 ft | 441 kts | 87° |
| 2026-05-07 15:55 | 35.89485 | -114.23821 | 28499 ft | 444 kts | 87° |
| 2026-05-07 15:55 | 35.89462 | -114.19999 | 28923 ft | 447 kts | 87° |
| 2026-05-07 15:55 | 35.89439 | -114.16162 | 29336 ft | 449 kts | 88° |
| 2026-05-07 15:56 | 35.89414 | -114.12358 | 29751 ft | 452 kts | 88° |
| 2026-05-07 15:56 | 35.89388 | -114.08470 | 30136 ft | 454 kts | 88° |
| 2026-05-07 15:56 | 35.89360 | -114.04565 | 30467 ft | 457 kts | 88° |
| 2026-05-07 15:56 | 35.89331 | -114.00636 | 30793 ft | 459 kts | 88° |
| 2026-05-07 15:57 | 35.89300 | -113.96705 | 31272 ft | 458 kts | 88° |
| 2026-05-07 15:57 | 35.89268 | -113.92775 | 31765 ft | 456 kts | 88° |
| 2026-05-07 15:57 | 35.89235 | -113.88874 | 32259 ft | 455 kts | 87° |
| 2026-05-07 15:57 | 35.89201 | -113.84992 | 32783 ft | 452 kts | 87° |
| 2026-05-07 15:58 | 35.89166 | -113.81124 | 33289 ft | 450 kts | 87° |
| 2026-05-07 15:58 | 35.89131 | -113.77319 | 33804 ft | 448 kts | 87° |
| 2026-05-07 15:58 | 35.89093 | -113.73490 | 34279 ft | 446 kts | 87° |
| 2026-05-07 15:58 | 35.89055 | -113.69657 | 34625 ft | 446 kts | 87° |
| 2026-05-07 15:59 | 35.89015 | -113.65840 | 35004 ft | 445 kts | 87° |
| 2026-05-07 15:59 | 35.88975 | -113.62030 | 35339 ft | 444 kts | 87° |
| 2026-05-07 15:59 | 35.88934 | -113.58216 | 35645 ft | 445 kts | 87° |
| 2026-05-07 15:59 | 35.88887 | -113.54410 | 35988 ft | 444 kts | 89° |
| 2026-05-07 16:00 | 35.88484 | -113.50626 | 36313 ft | 447 kts | 97° |
| 2026-05-07 16:00 | 35.87937 | -113.46857 | 36620 ft | 446 kts | 96° |
| 2026-05-07 16:00 | 35.87407 | -113.43093 | 36937 ft | 445 kts | 96° |
| 2026-05-07 16:00 | 35.86869 | -113.39332 | 37216 ft | 446 kts | 96° |
| 2026-05-07 16:01 | 35.86336 | -113.35620 | 37503 ft | 446 kts | 96° |
| 2026-05-07 16:01 | 35.85794 | -113.31859 | 37773 ft | 446 kts | 96° |
| 2026-05-07 16:01 | 35.85251 | -113.28102 | 38055 ft | 445 kts | 96° |
| 2026-05-07 16:01 | 35.84707 | -113.24342 | 38277 ft | 445 kts | 96° |
| 2026-05-07 16:02 | 35.84163 | -113.20594 | 38537 ft | 444 kts | 96° |
| 2026-05-07 16:02 | 35.83618 | -113.16847 | 38768 ft | 444 kts | 97° |
| 2026-05-07 16:02 | 35.83072 | -113.13103 | 38944 ft | 444 kts | 97° |
| 2026-05-07 16:02 | 35.82524 | -113.09351 | 39053 ft | 446 kts | 97° |
| 2026-05-07 16:03 | 35.81973 | -113.05587 | 39060 ft | 446 kts | 97° |
| 2026-05-07 16:03 | 35.80871 | -112.98087 | 39056 ft | 445 kts | 97° |
| 2026-05-07 16:04 | 35.79765 | -112.90594 | 39068 ft | 445 kts | 97° |
| 2026-05-07 16:04 | 35.78662 | -112.83154 | 39073 ft | 445 kts | 97° |
| 2026-05-07 16:05 | 35.77546 | -112.75657 | 39075 ft | 445 kts | 97° |
| 2026-05-07 16:05 | 35.76426 | -112.68157 | 39077 ft | 446 kts | 97° |
| 2026-05-07 16:06 | 35.75302 | -112.60648 | 39078 ft | 446 kts | 97° |
| 2026-05-07 16:06 | 35.74179 | -112.53170 | 39078 ft | 448 kts | 97° |
| 2026-05-07 16:07 | 35.73042 | -112.45630 | 39081 ft | 448 kts | 97° |
| 2026-05-07 16:07 | 35.71897 | -112.38079 | 39070 ft | 449 kts | 97° |
| 2026-05-07 16:08 | 35.70748 | -112.30527 | 39063 ft | 449 kts | 97° |
| 2026-05-07 16:08 | 35.69593 | -112.22972 | 39058 ft | 449 kts | 97° |
| 2026-05-07 16:09 | 35.68442 | -112.15473 | 39058 ft | 449 kts | 98° |
| 2026-05-07 16:09 | 35.67277 | -112.07919 | 39058 ft | 451 kts | 98° |
| 2026-05-07 16:10 | 35.66103 | -112.00339 | 39068 ft | 451 kts | 98° |
| 2026-05-07 16:10 | 35.64932 | -111.92813 | 39070 ft | 452 kts | 98° |
| 2026-05-07 16:11 | 35.63743 | -111.85187 | 39084 ft | 455 kts | 98° |
| 2026-05-07 16:11 | 35.62935 | -111.77508 | 39103 ft | 453 kts | 94° |
| 2026-05-07 16:12 | 35.62208 | -111.69791 | 39098 ft | 455 kts | 94° |
| 2026-05-07 16:12 | 35.61460 | -111.62131 | 39091 ft | 455 kts | 95° |
| 2026-05-07 16:13 | 35.60699 | -111.54410 | 39092 ft | 455 kts | 95° |
| 2026-05-07 16:13 | 35.59934 | -111.46699 | 39092 ft | 455 kts | 95° |
| 2026-05-07 16:14 | 35.59164 | -111.38983 | 39109 ft | 455 kts | 95° |
| 2026-05-07 16:14 | 35.58388 | -111.31270 | 39103 ft | 455 kts | 95° |
| 2026-05-07 16:15 | 35.57614 | -111.23619 | 39098 ft | 455 kts | 95° |
| 2026-05-07 16:15 | 35.56539 | -111.15952 | 39112 ft | 456 kts | 98° |
| 2026-05-07 16:16 | 35.55421 | -111.08279 | 39110 ft | 457 kts | 99° |
| 2026-05-07 16:16 | 35.54311 | -111.00599 | 39115 ft | 457 kts | 99° |
| 2026-05-07 16:17 | 35.53204 | -110.92971 | 39112 ft | 457 kts | 99° |
| 2026-05-07 16:17 | 35.52083 | -110.85289 | 39111 ft | 457 kts | 99° |
| 2026-05-07 16:18 | 35.50959 | -110.77616 | 39114 ft | 457 kts | 99° |
| 2026-05-07 16:18 | 35.49827 | -110.69923 | 39112 ft | 458 kts | 99° |
| 2026-05-07 16:19 | 35.48697 | -110.62282 | 39115 ft | 458 kts | 99° |
| 2026-05-07 16:19 | 35.47555 | -110.54595 | 39113 ft | 458 kts | 99° |
| 2026-05-07 16:20 | 35.46408 | -110.46905 | 39117 ft | 458 kts | 100° |
| 2026-05-07 16:20 | 35.45254 | -110.39207 | 39117 ft | 459 kts | 100° |
| 2026-05-07 16:21 | 35.44095 | -110.31510 | 39108 ft | 459 kts | 101° |
| 2026-05-07 16:21 | 35.42941 | -110.23878 | 39113 ft | 459 kts | 101° |
| 2026-05-07 16:22 | 35.41773 | -110.16191 | 39113 ft | 459 kts | 101° |
| 2026-05-07 16:22 | 35.40599 | -110.08498 | 39116 ft | 460 kts | 101° |
| 2026-05-07 16:23 | 35.39416 | -110.00781 | 39120 ft | 462 kts | 101° |
| 2026-05-07 16:23 | 35.38234 | -109.93106 | 39119 ft | 461 kts | 101° |
| 2026-05-07 16:24 | 35.37041 | -109.85388 | 39123 ft | 462 kts | 101° |
| 2026-05-07 16:24 | 35.35841 | -109.77665 | 39111 ft | 461 kts | 101° |
| 2026-05-07 16:25 | 35.34637 | -109.69943 | 39115 ft | 462 kts | 101° |
| 2026-05-07 16:25 | 35.33436 | -109.62280 | 39109 ft | 461 kts | 101° |
| 2026-05-07 16:26 | 35.32222 | -109.54562 | 39112 ft | 461 kts | 101° |
| 2026-05-07 16:26 | 35.31004 | -109.46859 | 39101 ft | 461 kts | 101° |
| 2026-05-07 16:27 | 35.29780 | -109.39147 | 39105 ft | 462 kts | 101° |
| 2026-05-07 16:27 | 35.28559 | -109.31484 | 39104 ft | 462 kts | 101° |
| 2026-05-07 16:28 | 35.27326 | -109.23780 | 39103 ft | 461 kts | 101° |
| 2026-05-07 16:28 | 35.26087 | -109.16076 | 39103 ft | 462 kts | 101° |
| 2026-05-07 16:29 | 35.24843 | -109.08369 | 39114 ft | 462 kts | 102° |
| 2026-05-07 16:29 | 35.23599 | -109.00698 | 39133 ft | 463 kts | 102° |
| 2026-05-07 16:30 | 35.22343 | -108.92984 | 39133 ft | 463 kts | 102° |
| 2026-05-07 16:30 | 35.21080 | -108.85256 | 39148 ft | 464 kts | 103° |
| 2026-05-07 16:31 | 35.19810 | -108.77521 | 39144 ft | 464 kts | 103° |
| 2026-05-07 16:31 | 35.18541 | -108.69829 | 39116 ft | 466 kts | 103° |
| 2026-05-07 16:32 | 35.17255 | -108.62061 | 39103 ft | 466 kts | 103° |
| 2026-05-07 16:32 | 35.15965 | -108.54302 | 39111 ft | 466 kts | 103° |
| 2026-05-07 16:33 | 35.14671 | -108.46547 | 39109 ft | 466 kts | 103° |
| 2026-05-07 16:33 | 35.13377 | -108.38832 | 39104 ft | 468 kts | 103° |
| 2026-05-07 16:34 | 35.12062 | -108.31017 | 39110 ft | 470 kts | 103° |
| 2026-05-07 16:34 | 35.10741 | -108.23199 | 39107 ft | 470 kts | 103° |
| 2026-05-07 16:35 | 35.09410 | -108.15358 | 39095 ft | 474 kts | 104° |
| 2026-05-07 16:35 | 35.08061 | -108.07446 | 39107 ft | 477 kts | 104° |
| 2026-05-07 16:36 | 35.06718 | -107.99592 | 39110 ft | 476 kts | 104° |
| 2026-05-07 16:36 | 35.05359 | -107.91685 | 39106 ft | 476 kts | 104° |
| 2026-05-07 16:37 | 35.03994 | -107.83774 | 39112 ft | 476 kts | 104° |
| 2026-05-07 16:37 | 35.02626 | -107.75877 | 39105 ft | 476 kts | 104° |
| 2026-05-07 16:38 | 35.01259 | -107.68019 | 39107 ft | 478 kts | 104° |
| 2026-05-07 16:38 | 34.99873 | -107.60081 | 39109 ft | 478 kts | 104° |
| 2026-05-07 16:39 | 34.98483 | -107.52156 | 39111 ft | 478 kts | 104° |
| 2026-05-07 16:39 | 34.97086 | -107.44222 | 39104 ft | 478 kts | 105° |
| 2026-05-07 16:40 | 34.95688 | -107.36314 | 39104 ft | 483 kts | 105° |
| 2026-05-07 16:40 | 34.94264 | -107.28291 | 39108 ft | 485 kts | 105° |
| 2026-05-07 16:41 | 34.92833 | -107.20261 | 39108 ft | 485 kts | 105° |
| 2026-05-07 16:41 | 34.91398 | -107.12243 | 39117 ft | 485 kts | 105° |
| 2026-05-07 16:42 | 34.89958 | -107.04226 | 39113 ft | 485 kts | 105° |
| 2026-05-07 16:42 | 34.88515 | -106.96228 | 39119 ft | 488 kts | 106° |
| 2026-05-07 16:43 | 34.87052 | -106.88148 | 39119 ft | 488 kts | 106° |
| 2026-05-07 16:43 | 34.85585 | -106.80078 | 39185 ft | 488 kts | 106° |
| 2026-05-07 16:44 | 34.84113 | -106.72014 | 39186 ft | 488 kts | 106° |
| 2026-05-07 16:44 | 34.82643 | -106.63996 | 39189 ft | 490 kts | 106° |
| 2026-05-07 16:45 | 34.81154 | -106.55898 | 39183 ft | 491 kts | 106° |
| 2026-05-07 16:45 | 34.79658 | -106.47802 | 39161 ft | 490 kts | 106° |
| 2026-05-07 16:46 | 34.78157 | -106.39708 | 39134 ft | 490 kts | 106° |
| 2026-05-07 16:46 | 34.76661 | -106.31673 | 39115 ft | 492 kts | 107° |
| 2026-05-07 16:47 | 34.75142 | -106.23545 | 39119 ft | 494 kts | 107° |
| 2026-05-07 16:47 | 34.73616 | -106.15412 | 39117 ft | 493 kts | 107° |
| 2026-05-07 16:48 | 34.72084 | -106.07280 | 39112 ft | 493 kts | 107° |
| 2026-05-07 16:48 | 34.70557 | -105.99208 | 39111 ft | 493 kts | 107° |
| 2026-05-07 16:49 | 34.69010 | -105.91057 | 39096 ft | 498 kts | 108° |
| 2026-05-07 16:49 | 34.67445 | -105.82843 | 39119 ft | 500 kts | 108° |
| 2026-05-07 16:50 | 34.65872 | -105.74622 | 39117 ft | 499 kts | 108° |
| 2026-05-07 16:50 | 34.64293 | -105.66400 | 39107 ft | 499 kts | 108° |
| 2026-05-07 16:51 | 34.62718 | -105.58233 | 39103 ft | 502 kts | 108° |
| 2026-05-07 16:51 | 34.61119 | -105.49974 | 39092 ft | 503 kts | 108° |
| 2026-05-07 16:52 | 34.59513 | -105.41706 | 39095 ft | 503 kts | 108° |
| 2026-05-07 16:52 | 34.57901 | -105.33440 | 39079 ft | 503 kts | 108° |
| 2026-05-07 16:53 | 34.56296 | -105.25246 | 39078 ft | 504 kts | 109° |
| 2026-05-07 16:53 | 34.54664 | -105.16942 | 39084 ft | 507 kts | 109° |
| 2026-05-07 16:54 | 34.53021 | -105.08617 | 39089 ft | 508 kts | 109° |
| 2026-05-07 16:54 | 34.51371 | -105.00282 | 39092 ft | 508 kts | 109° |
| 2026-05-07 16:55 | 34.49729 | -104.92023 | 39094 ft | 508 kts | 110° |
| 2026-05-07 16:55 | 34.48061 | -104.83667 | 39101 ft | 511 kts | 110° |
| 2026-05-07 16:56 | 34.46382 | -104.75286 | 39096 ft | 511 kts | 110° |
| 2026-05-07 16:56 | 34.44142 | -104.64152 | 39102 ft | 511 kts | 110° |
| 2026-05-07 16:57 | 34.42177 | -104.54433 | 39102 ft | 511 kts | 110° |
| 2026-05-07 16:57 | 34.40479 | -104.46068 | 39100 ft | 511 kts | 110° |
| 2026-05-07 16:58 | 34.38776 | -104.37713 | 39082 ft | 511 kts | 110° |
| 2026-05-07 16:58 | 34.37356 | -104.30765 | 39102 ft | 512 kts | 110° |
| 2026-05-07 16:59 | 34.35364 | -104.21060 | 39092 ft | 511 kts | 111° |
| 2026-05-07 16:59 | 34.33637 | -104.12680 | 39102 ft | 515 kts | 111° |
| 2026-05-07 17:00 | 34.32192 | -104.05690 | 39092 ft | 515 kts | 111° |
| 2026-05-07 17:00 | 34.30451 | -103.97295 | 39094 ft | 515 kts | 111° |
| 2026-05-07 17:01 | 34.29289 | -103.91715 | 37518 ft | 521 kts | 111° |
| 2026-05-07 17:01 | 34.28407 | -103.87482 | 36579 ft | 516 kts | 111° |
| 2026-05-07 17:01 | 34.27531 | -103.83288 | 35608 ft | 515 kts | 111° |
| 2026-05-07 17:01 | 34.26645 | -103.79054 | 34581 ft | 524 kts | 110° |
| 2026-05-07 17:02 | 34.26048 | -103.76207 | 33964 ft | 528 kts | 110° |
| 2026-05-07 17:02 | 34.25145 | -103.71902 | 33065 ft | 529 kts | 110° |
| 2026-05-07 17:02 | 34.24242 | -103.67611 | 32334 ft | 527 kts | 110° |
| 2026-05-07 17:02 | 34.23340 | -103.63332 | 31580 ft | 526 kts | 109° |
| 2026-05-07 17:03 | 34.22435 | -103.59048 | 30638 ft | 528 kts | 109° |
| 2026-05-07 17:03 | 34.21521 | -103.54722 | 29498 ft | 533 kts | 109° |
| 2026-05-07 17:03 | 34.20605 | -103.50402 | 28653 ft | 528 kts | 109° |
| 2026-05-07 17:03 | 34.19694 | -103.46111 | 27640 ft | 528 kts | 108° |
| 2026-05-07 17:04 | 34.18783 | -103.41829 | 26772 ft | 524 kts | 108° |
| 2026-05-07 17:04 | 34.17892 | -103.37648 | 26041 ft | 518 kts | 108° |
| 2026-05-07 17:04 | 34.16996 | -103.33450 | 25268 ft | 513 kts | 107° |
| 2026-05-07 17:04 | 34.16108 | -103.29300 | 24546 ft | 508 kts | 107° |
| 2026-05-07 17:05 | 34.15230 | -103.25204 | 23903 ft | 500 kts | 107° |
| 2026-05-07 17:05 | 34.14365 | -103.21171 | 23189 ft | 493 kts | 107° |
| 2026-05-07 17:05 | 34.13510 | -103.17197 | 22476 ft | 484 kts | 107° |
| 2026-05-07 17:05 | 34.12678 | -103.13331 | 21488 ft | 470 kts | 107° |
| 2026-05-07 17:06 | 34.11866 | -103.09569 | 20662 ft | 456 kts | 106° |
| 2026-05-07 17:06 | 34.11091 | -103.05982 | 20040 ft | 440 kts | 106° |
| 2026-05-07 17:06 | 34.10330 | -103.02467 | 19388 ft | 427 kts | 106° |
| 2026-05-07 17:06 | 34.09583 | -102.99016 | 18721 ft | 429 kts | 106° |
| 2026-05-07 17:07 | 34.08821 | -102.95509 | 17994 ft | 435 kts | 106° |
| 2026-05-07 17:07 | 34.08049 | -102.91961 | 17194 ft | 438 kts | 106° |
| 2026-05-07 17:07 | 34.07273 | -102.88400 | 16445 ft | 439 kts | 106° |
| 2026-05-07 17:07 | 34.06498 | -102.84842 | 15777 ft | 438 kts | 107° |
| 2026-05-07 17:08 | 34.05728 | -102.81314 | 15261 ft | 433 kts | 107° |
| 2026-05-07 17:08 | 34.04969 | -102.77842 | 14977 ft | 423 kts | 108° |
| 2026-05-07 17:08 | 34.04238 | -102.74501 | 14749 ft | 413 kts | 108° |
| 2026-05-07 17:08 | 34.03512 | -102.71192 | 14514 ft | 403 kts | 108° |
| 2026-05-07 17:09 | 34.02804 | -102.67966 | 14321 ft | 394 kts | 108° |
| 2026-05-07 17:09 | 34.02112 | -102.64819 | 14134 ft | 384 kts | 108° |
| 2026-05-07 17:09 | 34.01434 | -102.61743 | 13948 ft | 376 kts | 108° |
| 2026-05-07 17:09 | 34.00771 | -102.58732 | 13757 ft | 367 kts | 108° |
| 2026-05-07 17:10 | 34.00124 | -102.55798 | 13580 ft | 358 kts | 108° |
| 2026-05-07 17:10 | 33.99492 | -102.52937 | 13400 ft | 349 kts | 108° |
| 2026-05-07 17:10 | 33.98877 | -102.50160 | 13058 ft | 347 kts | 108° |
| 2026-05-07 17:10 | 33.98256 | -102.47353 | 12658 ft | 347 kts | 108° |
| 2026-05-07 17:11 | 33.97634 | -102.44550 | 12275 ft | 346 kts | 107° |
| 2026-05-07 17:11 | 33.97014 | -102.41758 | 11908 ft | 344 kts | 107° |
| 2026-05-07 17:11 | 33.96398 | -102.38983 | 11545 ft | 343 kts | 107° |
| 2026-05-07 17:11 | 33.95782 | -102.36213 | 11186 ft | 342 kts | 107° |
| 2026-05-07 17:12 | 33.95166 | -102.33452 | 10821 ft | 341 kts | 106° |
| 2026-05-07 17:12 | 33.94554 | -102.30705 | 10466 ft | 339 kts | 106° |
| 2026-05-07 17:12 | 33.93949 | -102.27998 | 10091 ft | 329 kts | 106° |
| 2026-05-07 17:12 | 33.93371 | -102.25415 | 9722 ft | 318 kts | 106° |
| 2026-05-07 17:13 | 33.92804 | -102.22880 | 9373 ft | 307 kts | 105° |
| 2026-05-07 17:13 | 33.92258 | -102.20444 | 9040 ft | 297 kts | 106° |
| 2026-05-07 17:13 | 33.91728 | -102.18081 | 8711 ft | 287 kts | 105° |
| 2026-05-07 17:13 | 33.91194 | -102.15808 | 8427 ft | 277 kts | 111° |
| 2026-05-07 17:14 | 33.90232 | -102.13852 | 8134 ft | 270 kts | 128° |
| 2026-05-07 17:14 | 33.89131 | -102.12040 | 7882 ft | 267 kts | 127° |
| 2026-05-07 17:14 | 33.88045 | -102.10235 | 7590 ft | 266 kts | 127° |
| 2026-05-07 17:14 | 33.86972 | -102.08456 | 7354 ft | 256 kts | 127° |
| 2026-05-07 17:15 | 33.85969 | -102.06796 | 7217 ft | 242 kts | 127° |
| 2026-05-07 17:15 | 33.85011 | -102.05209 | 7088 ft | 228 kts | 127° |
| 2026-05-07 17:15 | 33.84122 | -102.03698 | 6954 ft | 216 kts | 121° |
| 2026-05-07 17:15 | 33.83768 | -102.02013 | 6768 ft | 205 kts | 91° |
| 2026-05-07 17:16 | 33.83753 | -102.00353 | 6655 ft | 193 kts | 90° |
| 2026-05-07 17:16 | 33.83744 | -101.98744 | 6549 ft | 193 kts | 90° |
| 2026-05-07 17:16 | 33.83741 | -101.97132 | 6476 ft | 193 kts | 90° |
| 2026-05-07 17:16 | 33.83743 | -101.95522 | 6386 ft | 192 kts | 90° |
| 2026-05-07 17:17 | 33.83747 | -101.93917 | 6251 ft | 191 kts | 89° |
| 2026-05-07 17:17 | 33.83753 | -101.92336 | 6032 ft | 192 kts | 90° |
| 2026-05-07 17:17 | 33.83759 | -101.90734 | 5747 ft | 191 kts | 89° |
| 2026-05-07 17:17 | 33.83767 | -101.89149 | 5538 ft | 189 kts | 90° |
| 2026-05-07 17:18 | 33.83776 | -101.87574 | 5359 ft | 188 kts | 90° |
| 2026-05-07 17:18 | 33.83783 | -101.86012 | 5185 ft | 187 kts | 90° |
| 2026-05-07 17:18 | 33.83523 | -101.84514 | 4954 ft | 183 kts | 122° |
| 2026-05-07 17:18 | 33.82649 | -101.83468 | 4796 ft | 178 kts | 152° |
| 2026-05-07 17:19 | 33.81490 | -101.83010 | 4692 ft | 176 kts | 174° |
| 2026-05-07 17:19 | 33.80302 | -101.82955 | 4732 ft | 170 kts | 181° |
| 2026-05-07 17:19 | 33.79140 | -101.82971 | 4692 ft | 160 kts | 181° |
| 2026-05-07 17:19 | 33.78052 | -101.82969 | 4649 ft | 155 kts | 181° |
| 2026-05-07 17:20 | 33.76978 | -101.82964 | 4561 ft | 155 kts | 181° |
| 2026-05-07 17:20 | 33.75902 | -101.82957 | 4459 ft | 154 kts | 181° |
| 2026-05-07 17:20 | 33.74831 | -101.82950 | 4427 ft | 154 kts | 181° |
| 2026-05-07 17:20 | 33.73756 | -101.82942 | 4365 ft | 155 kts | 180° |
| 2026-05-07 17:21 | 33.72683 | -101.82934 | 4214 ft | 154 kts | 181° |
| 2026-05-07 17:21 | 33.71636 | -101.82927 | 4029 ft | 151 kts | 180° |
| 2026-05-07 17:21 | 33.70589 | -101.82920 | 3808 ft | 149 kts | 180° |
| 2026-05-07 17:21 | 33.69555 | -101.82914 | 3614 ft | 148 kts | 180° |
| 2026-05-07 17:22 | 33.68525 | -101.82906 | 3392 ft | 147 kts | 180° |
| 2026-05-07 17:22 | 33.67538 | -101.82901 | 3294 ft | 129 kts | 180° |
| 2026-05-07 17:22 | 33.66869 | -101.82896 | 3297 ft | 69 kts | 181° |
| 2026-05-07 17:22 | 33.66524 | -101.82890 | 3296 ft | 46 kts | 179° |
| 2026-05-07 17:23 | 33.66224 | -101.82888 | 3294 ft | 38 kts | 180° |
| 2026-05-07 17:23 | 33.66097 | -101.82872 | 3292 ft | 13 kts | 160° |
| 2026-05-07 17:23 | 33.66049 | -101.82787 | 3294 ft | 14 kts | 119° |
| 2026-05-07 17:23 | 33.66031 | -101.82674 | 3295 ft | 15 kts | 90° |
| 2026-05-07 17:24 | 33.66031 | -101.82529 | 3295 ft | 19 kts | 91° |
| 2026-05-07 17:24 | 33.66031 | -101.82398 | 3295 ft | 7 kts | 104° |
| 2026-05-07 17:24 | 33.66013 | -101.82387 | 3295 ft | 6 kts | 171° |
| 2026-05-07 17:24 | 33.65926 | -101.82371 | 3295 ft | 20 kts | 166° |
| 2026-05-07 17:25 | 33.65797 | -101.82297 | 3295 ft | 10 kts | 172° |
| 2026-05-07 17:25 | 33.65761 | -101.82313 | 3295 ft | 5 kts | 189° |
| 2026-05-07 17:25 | 33.65718 | -101.82311 | 3295 ft | 7 kts | 179° |
| 2026-05-07 17:25 | 33.65684 | -101.82307 | 3295 ft | 2 kts | 175° |
| 2026-05-07 17:26 | 33.65683 | -101.82307 | 3295 ft | 0 kts | 175° |